Time;durP1;ratioP1;P1;durP2;ratioP2;P2;SDS_P1;SDS_P2;PMS_P1;PMS_P2;Temp;Humidity;BMP_temperature;BMP_pressure;BME280_temperature;BME280_humidity;BME280_pressure;Samples;Min_cycle;Max_cycle;Signal;HPM_P1;HPM_P2
2022/12/01 00:02:10;;;;;;;0.20;0.10;;;9.70;99.90;;;;;;21297356;28;20405;-70
2022/12/01 00:12:15;;;;;;;0.20;0.07;;;9.60;99.90;;;;;;21301228;27;20614;-70
2022/12/01 00:22:19;;;;;;;0.20;0.10;;;9.50;99.90;;;;;;21296017;27;20396;-69
2022/12/01 00:32:24;;;;;;;0.20;0.10;;;9.40;99.90;;;;;;21313509;27;20778;-71
2022/12/01 00:42:28;;;;;;;0.20;0.10;;;9.50;99.90;;;;;;21392347;27;20402;-70
2022/12/01 00:52:33;;;;;;;0.20;0.10;;;9.60;99.90;;;;;;21377349;27;20422;-69
2022/12/01 01:02:39;;;;;;;0.20;0.10;;;9.60;99.90;;;;;;21394425;27;20383;-69
2022/12/01 01:12:44;;;;;;;0.20;0.10;;;9.70;99.90;;;;;;21395745;27;20395;-70
2022/12/01 01:22:48;;;;;;;0.20;0.10;;;9.80;99.90;;;;;;21393213;27;20401;-69
2022/12/01 01:32:53;;;;;;;0.20;0.10;;;10.00;99.90;;;;;;21361393;27;20753;-69
2022/12/01 01:42:57;;;;;;;0.20;0.03;;;10.10;99.90;;;;;;21305466;27;20411;-69
2022/12/01 01:53:07;;;;;;;0.20;0.00;;;10.20;99.90;;;;;;21304955;27;20805;-69
2022/12/01 02:03:13;;;;;;;0.20;0.10;;;10.20;99.90;;;;;;21304195;27;20406;-70
2022/12/01 02:13:28;;;;;;;0.20;0.00;;;10.20;99.90;;;;;;21302955;27;20401;-70
2022/12/01 02:24:00;;;;;;;0.20;0.10;;;10.40;99.90;;;;;;21303058;27;20408;-70
2022/12/01 02:34:13;;;;;;;0.20;0.10;;;10.40;99.90;;;;;;21299218;27;20412;-70
2022/12/01 02:44:20;;;;;;;0.20;0.10;;;10.70;99.90;;;;;;21280255;27;20388;-70
2022/12/01 02:54:29;;;;;;;0.20;0.10;;;10.90;99.90;;;;;;21215533;28;20410;-70
2022/12/01 03:04:55;;;;;;;0.20;0.10;;;10.90;99.90;;;;;;21213605;28;20606;-70
2022/12/01 03:15:06;;;;;;;0.20;0.10;;;10.90;99.90;;;;;;21213828;28;20399;-69
2022/12/01 03:25:13;;;;;;;0.20;0.00;;;10.80;99.90;;;;;;21212877;28;20406;-69
2022/12/01 03:35:23;;;;;;;0.20;0.10;;;10.60;99.90;;;;;;21210315;28;20417;-69
2022/12/01 03:45:31;;;;;;;0.20;0.10;;;10.70;99.90;;;;;;21210830;28;20972;-70
2022/12/01 03:55:40;;;;;;;0.20;0.10;;;10.70;99.90;;;;;;21193259;28;20407;-69
2022/12/01 04:05:44;;;;;;;0.20;0.10;;;10.70;99.90;;;;;;21190427;28;20387;-70
2022/12/01 04:15:50;;;;;;;0.20;0.03;;;10.60;99.90;;;;;;21193544;28;20403;-70
2022/12/01 04:25:59;;;;;;;0.20;0.10;;;10.50;99.90;;;;;;21209298;28;20398;-69
2022/12/01 04:36:04;;;;;;;0.20;0.10;;;10.60;99.90;;;;;;21191480;28;20407;-69
2022/12/01 04:46:08;;;;;;;0.20;0.10;;;10.50;99.90;;;;;;21196369;28;20400;-69
2022/12/01 04:56:13;;;;;;;0.20;0.10;;;10.40;99.90;;;;;;21293044;27;20408;-69
2022/12/01 05:06:19;;;;;;;0.20;0.10;;;10.20;99.90;;;;;;21290681;27;20400;-69
2022/12/01 05:16:26;;;;;;;0.20;0.10;;;10.20;99.90;;;;;;21306104;27;20962;-69
2022/12/01 05:26:30;;;;;;;0.20;0.00;;;10.20;99.90;;;;;;21307791;27;20454;-70
2022/12/01 05:36:35;;;;;;;0.20;0.10;;;10.30;99.90;;;;;;21285746;27;20516;-70
2022/12/01 05:46:39;;;;;;;0.20;0.10;;;10.40;99.90;;;;;;21306536;27;20401;-69
2022/12/01 05:56:44;;;;;;;0.20;0.10;;;10.50;99.90;;;;;;21303835;27;20439;-70
2022/12/01 06:06:48;;;;;;;0.20;0.10;;;10.60;99.90;;;;;;21285462;27;20471;-70
2022/12/01 06:16:53;;;;;;;0.20;0.10;;;10.50;99.90;;;;;;21282959;27;20397;-70
2022/12/01 06:26:56;;;;;;;0.20;0.10;;;10.50;99.90;;;;;;21303269;27;20401;-68
2022/12/01 06:37:02;;;;;;;0.20;0.10;;;10.50;99.90;;;;;;21298423;27;20425;-69
2022/12/01 06:47:07;;;;;;;0.20;0.10;;;10.60;99.90;;;;;;21265208;27;20490;-69
2022/12/01 06:57:12;;;;;;;0.20;0.10;;;10.80;99.90;;;;;;21206832;28;20405;-69
2022/12/01 07:07:16;;;;;;;0.20;0.10;;;11.00;99.90;;;;;;21206660;28;20390;-69
2022/12/01 07:17:21;;;;;;;0.20;0.10;;;11.20;99.90;;;;;;21210470;28;20421;-69
2022/12/01 07:27:24;;;;;;;0.20;0.10;;;11.10;99.90;;;;;;21210214;28;20413;-69
2022/12/01 07:37:30;;;;;;;0.20;0.10;;;10.50;99.90;;;;;;21207650;28;20425;-68
2022/12/01 07:47:34;;;;;;;0.20;0.10;;;10.50;99.90;;;;;;21226067;27;20400;-67
2022/12/01 07:57:41;;;;;;;0.20;0.10;;;10.90;99.90;;;;;;21291424;27;20513;-69
2022/12/01 08:07:45;;;;;;;0.20;0.10;;;11.20;99.90;;;;;;21272777;28;20399;-70
2022/12/01 08:17:50;;;;;;;0.20;0.10;;;11.50;99.90;;;;;;21292671;28;21062;-69
2022/12/01 08:27:54;;;;;;;0.20;0.10;;;11.70;99.90;;;;;;21324760;27;20410;-68
2022/12/01 08:37:59;;;;;;;0.20;0.10;;;11.90;99.90;;;;;;21315835;27;20523;-69
2022/12/01 08:48:03;;;;;;;0.20;0.00;;;11.70;99.90;;;;;;21307056;27;20397;-68
2022/12/01 08:58:08;;;;;;;0.20;0.10;;;12.00;99.90;;;;;;21291579;27;20412;-69
2022/12/01 09:18:35;;;;;;;0.20;0.10;;;13.20;99.90;;;;;;21306048;27;20401;-69
2022/12/01 09:28:39;;;;;;;0.20;0.03;;;13.30;99.90;;;;;;21303573;27;20396;-68
2022/12/01 09:38:44;;;;;;;0.20;0.10;;;13.80;99.90;;;;;;21303110;27;20405;-69
2022/12/01 09:48:51;;;;;;;0.20;0.10;;;14.80;99.90;;;;;;21298909;27;20392;-67
2022/12/01 09:58:59;;;;;;;0.20;0.10;;;14.60;99.90;;;;;;21303450;27;20405;-68
2022/12/01 10:09:13;;;;;;;0.20;0.00;;;14.10;99.90;;;;;;21281946;27;20481;-67
2022/12/01 10:19:26;;;;;;;0.20;0.10;;;13.70;99.90;;;;;;21280251;27;20412;-68
2022/12/01 10:29:40;;;;;;;0.20;0.10;;;13.60;99.90;;;;;;21299976;27;20401;-68
2022/12/01 10:39:54;;;;;;;0.20;0.10;;;13.80;99.90;;;;;;21298670;27;20401;-68
2022/12/01 10:49:58;;;;;;;0.20;0.00;;;14.00;99.90;;;;;;21325014;27;20403;-68
2022/12/01 11:00:21;;;;;;;0.20;0.10;;;14.50;99.90;;;;;;21381164;27;20410;-68
2022/12/01 11:10:49;;;;;;;0.20;0.10;;;14.70;99.90;;;;;;21366210;27;20443;-68
2022/12/01 11:21:08;;;;;;;0.20;0.10;;;15.40;99.90;;;;;;21364571;27;20418;-67
2022/12/01 11:31:13;;;;;;;0.20;0.07;;;15.70;99.90;;;;;;21381600;27;20568;-66
2022/12/01 11:41:28;;;;;;;0.20;0.10;;;16.90;99.90;;;;;;21272246;27;20495;-68
2022/12/01 11:51:36;;;;;;;0.20;0.00;;;17.30;99.90;;;;;;21292201;27;20393;-68
2022/12/01 12:02:00;;;;;;;0.20;0.10;;;17.90;99.90;;;;;;21294492;28;20605;-68
2022/12/01 12:12:15;;;;;;;0.20;0.10;;;18.00;99.90;;;;;;21304627;27;20393;-69
2022/12/01 12:22:27;;;;;;;0.20;0.00;;;17.80;99.90;;;;;;21310097;27;20396;-69
2022/12/01 12:32:45;;;;;;;0.20;0.10;;;17.50;99.90;;;;;;21291298;27;20393;-69
2022/12/01 12:43:05;;;;;;;0.20;0.10;;;17.50;99.90;;;;;;21285777;27;20499;-69
2022/12/01 12:53:15;;;;;;;0.20;0.00;;;16.80;99.90;;;;;;21285327;27;20392;-69
2022/12/01 13:03:26;;;;;;;0.20;0.05;;;17.20;99.90;;;;;;21289113;27;20416;-68
2022/12/01 13:13:40;;;;;;;0.20;0.10;;;17.30;99.90;;;;;;21305258;27;20412;-68
2022/12/01 13:23:46;;;;;;;0.20;0.00;;;16.90;99.90;;;;;;21292422;27;20515;-69
2022/12/01 13:33:56;;;;;;;0.20;0.10;;;16.60;99.90;;;;;;21302061;27;20389;-70
2022/12/01 13:44:08;;;;;;;0.20;0.10;;;16.60;99.90;;;;;;21297007;27;20401;-69
2022/12/01 13:54:29;;;;;;;0.20;0.00;;;17.50;99.90;;;;;;21301634;27;20389;-70
2022/12/01 14:04:35;;;;;;;0.20;0.00;;;17.80;99.90;;;;;;21307276;27;20404;-68
2022/12/01 14:14:48;;;;;;;0.20;0.10;;;19.10;99.90;;;;;;21305120;27;20396;-69
2022/12/01 14:24:53;;;;;;;0.20;0.00;;;19.50;99.90;;;;;;21300368;27;20389;-69
2022/12/01 14:35:12;;;;;;;0.20;0.10;;;18.10;99.90;;;;;;21301909;27;20401;-68
2022/12/01 14:45:23;;;;;;;0.20;0.00;;;16.00;99.90;;;;;;21286566;27;20381;-68
2022/12/01 14:55:31;;;;;;;0.20;0.10;;;15.60;99.90;;;;;;21300067;27;20401;-69
2022/12/01 15:05:41;;;;;;;0.20;0.10;;;15.40;99.90;;;;;;21301986;27;20388;-69
2022/12/01 15:15:51;;;;;;;0.20;0.03;;;15.40;99.90;;;;;;21298237;27;20994;-68
2022/12/01 15:25:57;;;;;;;0.20;0.10;;;15.20;99.90;;;;;;21294553;27;20393;-67
2022/12/01 15:36:01;;;;;;;0.20;0.10;;;15.00;99.90;;;;;;21297083;27;20403;-69
2022/12/01 15:46:15;;;;;;;0.20;0.10;;;15.00;99.90;;;;;;21293309;27;20650;-69
2022/12/01 15:56:25;;;;;;;0.20;0.10;;;14.50;99.90;;;;;;21292695;27;20480;-73
2022/12/01 16:06:34;;;;;;;0.20;0.10;;;14.00;99.90;;;;;;21294790;28;20397;-68
2022/12/01 16:16:41;;;;;;;0.20;0.10;;;13.80;99.90;;;;;;21296090;28;20416;-70
2022/12/01 16:26:50;;;;;;;0.20;0.00;;;13.50;99.90;;;;;;21294428;28;20389;-69
2022/12/01 16:36:54;;;;;;;0.20;0.10;;;13.20;99.90;;;;;;21290533;28;20405;-69
2022/12/01 16:46:59;;;;;;;0.20;0.03;;;12.90;99.90;;;;;;21298341;27;20387;-68
2022/12/01 16:57:03;;;;;;;0.20;0.10;;;12.80;99.90;;;;;;21389069;27;20391;-71
2022/12/01 17:07:08;;;;;;;0.20;0.10;;;12.50;99.90;;;;;;21377066;27;20394;-70
2022/12/01 17:17:12;;;;;;;0.20;0.10;;;12.30;99.90;;;;;;21333972;27;20436;-70
2022/12/01 17:27:17;;;;;;;0.20;0.00;;;12.20;99.90;;;;;;21288888;27;20591;-68
2022/12/01 17:37:21;;;;;;;0.20;0.10;;;12.00;99.90;;;;;;21286431;27;20438;-70
2022/12/01 17:47:26;;;;;;;0.20;0.10;;;11.90;99.90;;;;;;21305132;27;20396;-70
2022/12/01 17:57:30;;;;;;;0.20;0.00;;;11.70;99.90;;;;;;21302283;27;20393;-69
2022/12/01 18:07:35;;;;;;;0.20;0.10;;;11.80;99.90;;;;;;21283473;27;20385;-69
2022/12/01 18:17:39;;;;;;;0.20;0.10;;;11.50;99.90;;;;;;21301710;27;20404;-70
2022/12/01 18:27:44;;;;;;;0.20;0.10;;;11.40;99.90;;;;;;21287773;27;20421;-71
2022/12/01 18:37:48;;;;;;;0.20;0.10;;;11.50;99.90;;;;;;21281002;27;20408;-71
2022/12/01 18:47:53;;;;;;;0.20;0.10;;;11.60;99.90;;;;;;21312516;27;20391;-70
2022/12/01 18:57:57;;;;;;;0.20;0.10;;;11.40;99.90;;;;;;21386262;27;20399;-68
2022/12/01 19:08:02;;;;;;;0.20;0.10;;;11.20;99.90;;;;;;21364157;27;20371;-68
2022/12/01 19:18:06;;;;;;;0.20;0.10;;;11.50;99.90;;;;;;21363167;27;20531;-70
2022/12/01 19:28:11;;;;;;;0.70;0.70;;;11.30;99.90;;;;;;21345945;27;20402;-70
2022/12/01 19:38:15;;;;;;;0.20;0.10;;;11.10;99.90;;;;;;21366767;27;20409;-70
2022/12/01 19:48:20;;;;;;;0.20;0.10;;;11.10;99.90;;;;;;21364974;27;20391;-71
2022/12/01 19:58:24;;;;;;;0.20;0.10;;;11.10;99.90;;;;;;21364264;27;20422;-70
2022/12/01 20:08:30;;;;;;;0.20;0.00;;;11.20;99.90;;;;;;21381979;27;20417;-71
2022/12/01 20:18:39;;;;;;;0.20;0.10;;;10.80;99.90;;;;;;21381552;27;20399;-70
2022/12/01 20:28:45;;;;;;;0.20;0.10;;;10.30;99.90;;;;;;21334429;27;20403;-70
2022/12/01 20:38:48;;;;;;;0.20;0.08;;;9.90;99.90;;;;;;21312375;27;20408;-71
2022/12/01 20:48:54;;;;;;;0.20;0.10;;;10.00;99.90;;;;;;21293408;27;20418;-73
2022/12/01 20:58:58;;;;;;;0.20;0.10;;;9.70;99.90;;;;;;21312079;27;20408;-70
2022/12/01 21:09:06;;;;;;;0.20;0.10;;;9.50;99.90;;;;;;21308583;27;20389;-72
2022/12/01 21:19:15;;;;;;;0.20;0.10;;;9.40;99.90;;;;;;21308964;27;20407;-71
2022/12/01 21:29:23;;;;;;;0.20;0.10;;;9.20;99.90;;;;;;21308997;27;20389;-71
2022/12/01 21:39:29;;;;;;;0.20;0.10;;;8.90;99.90;;;;;;21308002;27;20482;-71
2022/12/01 21:49:37;;;;;;;0.20;0.10;;;9.20;99.90;;;;;;21306710;27;20392;-71
2022/12/01 21:59:41;;;;;;;0.20;0.10;;;9.00;99.90;;;;;;21308037;27;20401;-70
2022/12/01 22:09:46;;;;;;;0.20;0.10;;;8.90;99.90;;;;;;21283492;27;20485;-70
2022/12/01 22:19:55;;;;;;;0.20;0.00;;;8.90;99.90;;;;;;21300599;27;20447;-73
2022/12/01 22:30:10;;;;;;;0.20;0.10;;;9.30;99.90;;;;;;21294627;27;20748;-71
2022/12/01 22:40:38;;;;;;;0.20;0.10;;;9.00;99.90;;;;;;21299177;27;20393;-72
2022/12/01 22:50:46;;;;;;;0.20;0.10;;;9.20;99.90;;;;;;21317631;27;20403;-71
2022/12/01 23:00:55;;;;;;;0.20;0.10;;;8.90;99.90;;;;;;21384232;27;20395;-72
2022/12/01 23:11:02;;;;;;;0.20;0.10;;;8.50;99.90;;;;;;21366887;27;20388;-73
2022/12/01 23:21:07;;;;;;;0.20;0.10;;;8.40;99.90;;;;;;21385186;27;20737;-72
2022/12/01 23:31:12;;;;;;;0.20;0.10;;;8.50;99.90;;;;;;21382272;27;20422;-71
2022/12/01 23:41:21;;;;;;;0.20;0.10;;;8.50;99.90;;;;;;21333897;27;20489;-72
2022/12/01 23:51:32;;;;;;;0.20;0.10;;;8.80;99.90;;;;;;21294191;27;20452;-72
